sensor_id;sensor_type;location;lat;lon;timestamp;P1;durP1;ratioP1;P2;durP2;ratioP2
21769;SDS011;11046;49.558;8.674;2024-03-29T00:02:25;4.57;;;1.00;;
21769;SDS011;11046;49.558;8.674;2024-03-29T00:05:26;3.87;;;1.00;;
21769;SDS011;11046;49.558;8.674;2024-03-29T00:08:26;1.67;;;0.90;;
21769;SDS011;11046;49.558;8.674;2024-03-29T00:11:27;1.60;;;0.80;;
21769;SDS011;11046;49.558;8.674;2024-03-29T00:14:27;2.77;;;1.00;;
21769;SDS011;11046;49.558;8.674;2024-03-29T00:17:28;3.20;;;1.00;;
21769;SDS011;11046;49.558;8.674;2024-03-29T00:20:28;2.30;;;0.87;;
21769;SDS011;11046;49.558;8.674;2024-03-29T00:23:30;2.40;;;0.93;;
21769;SDS011;11046;49.558;8.674;2024-03-29T00:26:30;3.03;;;1.10;;
21769;SDS011;11046;49.558;8.674;2024-03-29T00:29:31;1.47;;;1.00;;
21769;SDS011;11046;49.558;8.674;2024-03-29T00:32:32;2.77;;;1.10;;
21769;SDS011;11046;49.558;8.674;2024-03-29T00:35:33;2.40;;;1.00;;
21769;SDS011;11046;49.558;8.674;2024-03-29T00:38:33;2.07;;;1.03;;
21769;SDS011;11046;49.558;8.674;2024-03-29T00:41:34;3.70;;;1.30;;
21769;SDS011;11046;49.558;8.674;2024-03-29T00:44:35;3.30;;;1.07;;
21769;SDS011;11046;49.558;8.674;2024-03-29T00:47:38;4.40;;;1.23;;
21769;SDS011;11046;49.558;8.674;2024-03-29T00:50:39;2.47;;;1.17;;
21769;SDS011;11046;49.558;8.674;2024-03-29T00:53:39;2.13;;;1.00;;
21769;SDS011;11046;49.558;8.674;2024-03-29T00:56:40;3.97;;;1.27;;
21769;SDS011;11046;49.558;8.674;2024-03-29T00:59:40;4.07;;;1.00;;
21769;SDS011;11046;49.558;8.674;2024-03-29T01:02:43;1.13;;;0.80;;
21769;SDS011;11046;49.558;8.674;2024-03-29T01:05:43;2.60;;;0.90;;
21769;SDS011;11046;49.558;8.674;2024-03-29T01:08:44;2.80;;;1.10;;
21769;SDS011;11046;49.558;8.674;2024-03-29T01:11:45;2.73;;;1.13;;
21769;SDS011;11046;49.558;8.674;2024-03-29T01:14:45;3.10;;;1.00;;
21769;SDS011;11046;49.558;8.674;2024-03-29T01:17:46;1.53;;;0.83;;
21769;SDS011;11046;49.558;8.674;2024-03-29T01:20:46;2.27;;;1.00;;
21769;SDS011;11046;49.558;8.674;2024-03-29T01:23:47;2.23;;;0.90;;
21769;SDS011;11046;49.558;8.674;2024-03-29T01:26:49;2.00;;;0.97;;
21769;SDS011;11046;49.558;8.674;2024-03-29T01:29:49;3.30;;;1.10;;
21769;SDS011;11046;49.558;8.674;2024-03-29T01:32:50;2.87;;;1.13;;
21769;SDS011;11046;49.558;8.674;2024-03-29T01:35:51;5.50;;;1.10;;
21769;SDS011;11046;49.558;8.674;2024-03-29T01:38:51;2.23;;;1.00;;
21769;SDS011;11046;49.558;8.674;2024-03-29T01:41:54;2.10;;;1.00;;
21769;SDS011;11046;49.558;8.674;2024-03-29T01:44:56;2.13;;;1.10;;
21769;SDS011;11046;49.558;8.674;2024-03-29T01:47:56;2.87;;;1.10;;
21769;SDS011;11046;49.558;8.674;2024-03-29T01:50:57;2.87;;;1.20;;
21769;SDS011;11046;49.558;8.674;2024-03-29T01:53:58;2.90;;;1.03;;
21769;SDS011;11046;49.558;8.674;2024-03-29T01:57:00;1.80;;;0.87;;
21769;SDS011;11046;49.558;8.674;2024-03-29T02:00:00;2.00;;;0.90;;
21769;SDS011;11046;49.558;8.674;2024-03-29T02:03:06;3.07;;;1.03;;
21769;SDS011;11046;49.558;8.674;2024-03-29T02:06:09;2.63;;;0.90;;
21769;SDS011;11046;49.558;8.674;2024-03-29T02:09:10;2.90;;;1.10;;
21769;SDS011;11046;49.558;8.674;2024-03-29T02:12:11;1.60;;;0.90;;
21769;SDS011;11046;49.558;8.674;2024-03-29T02:15:15;2.17;;;1.03;;
21769;SDS011;11046;49.558;8.674;2024-03-29T02:18:18;1.43;;;0.93;;
21769;SDS011;11046;49.558;8.674;2024-03-29T02:21:19;1.53;;;0.80;;
21769;SDS011;11046;49.558;8.674;2024-03-29T02:24:19;5.90;;;1.30;;
21769;SDS011;11046;49.558;8.674;2024-03-29T02:27:21;3.33;;;1.10;;
21769;SDS011;11046;49.558;8.674;2024-03-29T02:30:21;1.20;;;0.80;;
21769;SDS011;11046;49.558;8.674;2024-03-29T02:33:22;1.60;;;1.10;;
21769;SDS011;11046;49.558;8.674;2024-03-29T02:36:23;1.73;;;0.87;;
21769;SDS011;11046;49.558;8.674;2024-03-29T02:39:23;2.00;;;1.17;;
21769;SDS011;11046;49.558;8.674;2024-03-29T02:45:41;4.37;;;1.00;;
21769;SDS011;11046;49.558;8.674;2024-03-29T02:48:41;1.87;;;0.90;;
21769;SDS011;11046;49.558;8.674;2024-03-29T02:51:43;2.43;;;1.00;;
21769;SDS011;11046;49.558;8.674;2024-03-29T02:54:44;2.10;;;1.00;;
21769;SDS011;11046;49.558;8.674;2024-03-29T02:57:45;1.87;;;0.83;;
21769;SDS011;11046;49.558;8.674;2024-03-29T03:00:46;1.07;;;0.80;;
21769;SDS011;11046;49.558;8.674;2024-03-29T03:03:46;1.30;;;0.70;;
21769;SDS011;11046;49.558;8.674;2024-03-29T03:06:47;1.87;;;0.83;;
21769;SDS011;11046;49.558;8.674;2024-03-29T03:09:47;1.37;;;1.10;;
21769;SDS011;11046;49.558;8.674;2024-03-29T03:13:06;1.40;;;0.90;;
21769;SDS011;11046;49.558;8.674;2024-03-29T03:16:07;2.83;;;0.70;;
21769;SDS011;11046;49.558;8.674;2024-03-29T03:19:07;4.10;;;0.97;;
21769;SDS011;11046;49.558;8.674;2024-03-29T03:22:08;2.03;;;0.70;;
21769;SDS011;11046;49.558;8.674;2024-03-29T03:25:09;2.83;;;0.73;;
21769;SDS011;11046;49.558;8.674;2024-03-29T03:28:10;1.40;;;0.70;;
21769;SDS011;11046;49.558;8.674;2024-03-29T03:31:10;2.75;;;0.80;;
21769;SDS011;11046;49.558;8.674;2024-03-29T03:34:11;1.67;;;0.70;;
21769;SDS011;11046;49.558;8.674;2024-03-29T03:37:11;1.37;;;0.80;;
21769;SDS011;11046;49.558;8.674;2024-03-29T03:40:12;2.40;;;0.60;;
21769;SDS011;11046;49.558;8.674;2024-03-29T03:43:12;1.67;;;0.67;;
21769;SDS011;11046;49.558;8.674;2024-03-29T03:46:13;1.33;;;0.80;;
21769;SDS011;11046;49.558;8.674;2024-03-29T03:49:14;0.70;;;0.60;;
21769;SDS011;11046;49.558;8.674;2024-03-29T03:52:14;1.63;;;0.80;;
21769;SDS011;11046;49.558;8.674;2024-03-29T03:55:15;0.60;;;0.60;;
21769;SDS011;11046;49.558;8.674;2024-03-29T03:58:15;1.80;;;0.93;;
21769;SDS011;11046;49.558;8.674;2024-03-29T04:01:16;2.40;;;0.70;;
21769;SDS011;11046;49.558;8.674;2024-03-29T04:04:19;1.10;;;0.70;;
21769;SDS011;11046;49.558;8.674;2024-03-29T04:07:20;1.60;;;0.90;;
21769;SDS011;11046;49.558;8.674;2024-03-29T04:10:21;1.30;;;0.63;;
21769;SDS011;11046;49.558;8.674;2024-03-29T04:13:22;1.38;;;0.80;;
21769;SDS011;11046;49.558;8.674;2024-03-29T04:16:23;1.20;;;0.63;;
21769;SDS011;11046;49.558;8.674;2024-03-29T04:19:23;1.30;;;0.60;;
21769;SDS011;11046;49.558;8.674;2024-03-29T04:22:24;1.58;;;0.85;;
21769;SDS011;11046;49.558;8.674;2024-03-29T04:25:25;1.15;;;0.60;;
21769;SDS011;11046;49.558;8.674;2024-03-29T04:28:26;1.97;;;0.97;;
21769;SDS011;11046;49.558;8.674;2024-03-29T04:31:26;2.15;;;0.63;;
21769;SDS011;11046;49.558;8.674;2024-03-29T04:34:27;2.05;;;0.60;;
21769;SDS011;11046;49.558;8.674;2024-03-29T04:37:28;2.60;;;0.70;;
21769;SDS011;11046;49.558;8.674;2024-03-29T04:40:28;1.08;;;0.68;;
21769;SDS011;11046;49.558;8.674;2024-03-29T04:43:29;1.50;;;1.02;;
21769;SDS011;11046;49.558;8.674;2024-03-29T04:46:30;1.17;;;0.70;;
21769;SDS011;11046;49.558;8.674;2024-03-29T04:49:31;0.93;;;0.60;;
21769;SDS011;11046;49.558;8.674;2024-03-29T04:52:36;1.02;;;0.70;;
21769;SDS011;11046;49.558;8.674;2024-03-29T04:55:37;0.83;;;0.60;;
21769;SDS011;11046;49.558;8.674;2024-03-29T04:58:37;1.67;;;0.70;;
21769;SDS011;11046;49.558;8.674;2024-03-29T05:01:38;1.63;;;0.75;;
21769;SDS011;11046;49.558;8.674;2024-03-29T05:04:39;1.15;;;0.70;;
21769;SDS011;11046;49.558;8.674;2024-03-29T05:07:40;1.38;;;0.80;;
21769;SDS011;11046;49.558;8.674;2024-03-29T05:10:41;0.90;;;0.60;;
21769;SDS011;11046;49.558;8.674;2024-03-29T05:13:41;1.95;;;0.68;;
21769;SDS011;11046;49.558;8.674;2024-03-29T05:16:42;2.03;;;0.75;;
21769;SDS011;11046;49.558;8.674;2024-03-29T05:19:43;1.42;;;0.70;;
21769;SDS011;11046;49.558;8.674;2024-03-29T05:22:43;0.90;;;0.60;;
21769;SDS011;11046;49.558;8.674;2024-03-29T05:25:44;1.40;;;0.65;;
21769;SDS011;11046;49.558;8.674;2024-03-29T05:28:44;1.00;;;0.80;;
21769;SDS011;11046;49.558;8.674;2024-03-29T05:31:45;2.20;;;1.23;;
21769;SDS011;11046;49.558;8.674;2024-03-29T05:34:46;1.50;;;0.77;;
21769;SDS011;11046;49.558;8.674;2024-03-29T05:37:46;0.87;;;0.63;;
21769;SDS011;11046;49.558;8.674;2024-03-29T05:40:51;4.67;;;1.10;;
21769;SDS011;11046;49.558;8.674;2024-03-29T05:43:51;1.93;;;0.80;;
21769;SDS011;11046;49.558;8.674;2024-03-29T05:46:52;0.90;;;0.80;;
21769;SDS011;11046;49.558;8.674;2024-03-29T05:49:53;2.40;;;1.30;;
21769;SDS011;11046;49.558;8.674;2024-03-29T05:52:54;0.90;;;0.80;;
21769;SDS011;11046;49.558;8.674;2024-03-29T05:55:55;1.00;;;0.70;;
21769;SDS011;11046;49.558;8.674;2024-03-29T05:58:55;0.77;;;0.60;;
21769;SDS011;11046;49.558;8.674;2024-03-29T06:05:13;1.83;;;0.63;;
21769;SDS011;11046;49.558;8.674;2024-03-29T06:08:14;1.07;;;0.77;;
21769;SDS011;11046;49.558;8.674;2024-03-29T06:11:14;1.10;;;0.70;;
21769;SDS011;11046;49.558;8.674;2024-03-29T06:14:15;2.67;;;0.80;;
21769;SDS011;11046;49.558;8.674;2024-03-29T06:17:34;1.73;;;0.70;;
21769;SDS011;11046;49.558;8.674;2024-03-29T06:20:37;2.47;;;0.70;;
21769;SDS011;11046;49.558;8.674;2024-03-29T06:23:37;0.90;;;0.60;;
21769;SDS011;11046;49.558;8.674;2024-03-29T06:26:38;1.93;;;0.60;;
21769;SDS011;11046;49.558;8.674;2024-03-29T06:29:39;1.20;;;0.90;;
21769;SDS011;11046;49.558;8.674;2024-03-29T06:32:39;1.73;;;0.67;;
21769;SDS011;11046;49.558;8.674;2024-03-29T06:35:40;1.03;;;0.63;;
21769;SDS011;11046;49.558;8.674;2024-03-29T06:38:40;1.50;;;0.70;;
21769;SDS011;11046;49.558;8.674;2024-03-29T06:41:41;5.50;;;1.60;;
21769;SDS011;11046;49.558;8.674;2024-03-29T06:44:41;1.70;;;1.00;;
21769;SDS011;11046;49.558;8.674;2024-03-29T06:47:42;1.50;;;0.70;;
21769;SDS011;11046;49.558;8.674;2024-03-29T06:50:43;1.95;;;0.80;;
21769;SDS011;11046;49.558;8.674;2024-03-29T06:53:43;2.03;;;0.77;;
21769;SDS011;11046;49.558;8.674;2024-03-29T06:56:44;1.00;;;0.63;;
21769;SDS011;11046;49.558;8.674;2024-03-29T06:59:44;1.10;;;0.73;;
21769;SDS011;11046;49.558;8.674;2024-03-29T07:02:45;1.10;;;0.70;;
21769;SDS011;11046;49.558;8.674;2024-03-29T07:05:46;1.37;;;0.90;;
21769;SDS011;11046;49.558;8.674;2024-03-29T07:08:47;0.93;;;0.75;;
21769;SDS011;11046;49.558;8.674;2024-03-29T07:11:49;1.07;;;0.80;;
21769;SDS011;11046;49.558;8.674;2024-03-29T07:14:50;1.58;;;0.70;;
21769;SDS011;11046;49.558;8.674;2024-03-29T07:17:51;0.50;;;0.50;;
21769;SDS011;11046;49.558;8.674;2024-03-29T07:20:52;0.90;;;0.53;;
21769;SDS011;11046;49.558;8.674;2024-03-29T07:23:53;1.33;;;1.00;;
21769;SDS011;11046;49.558;8.674;2024-03-29T07:26:55;1.80;;;0.87;;
21769;SDS011;11046;49.558;8.674;2024-03-29T07:29:55;1.13;;;0.50;;
21769;SDS011;11046;49.558;8.674;2024-03-29T07:32:56;1.30;;;0.60;;
21769;SDS011;11046;49.558;8.674;2024-03-29T07:35:56;1.27;;;0.52;;
21769;SDS011;11046;49.558;8.674;2024-03-29T07:38:59;1.85;;;0.73;;
21769;SDS011;11046;49.558;8.674;2024-03-29T07:42:00;1.10;;;0.60;;
21769;SDS011;11046;49.558;8.674;2024-03-29T07:45:00;0.75;;;0.60;;
21769;SDS011;11046;49.558;8.674;2024-03-29T07:48:01;0.90;;;0.60;;
21769;SDS011;11046;49.558;8.674;2024-03-29T07:51:01;1.20;;;0.80;;
21769;SDS011;11046;49.558;8.674;2024-03-29T07:54:02;2.03;;;1.00;;
21769;SDS011;11046;49.558;8.674;2024-03-29T07:57:03;1.77;;;1.20;;
21769;SDS011;11046;49.558;8.674;2024-03-29T08:00:04;4.57;;;1.35;;
21769;SDS011;11046;49.558;8.674;2024-03-29T08:03:06;2.20;;;1.13;;
21769;SDS011;11046;49.558;8.674;2024-03-29T08:06:07;1.93;;;1.13;;
21769;SDS011;11046;49.558;8.674;2024-03-29T08:09:07;2.13;;;1.10;;
21769;SDS011;11046;49.558;8.674;2024-03-29T08:12:09;4.07;;;1.58;;
21769;SDS011;11046;49.558;8.674;2024-03-29T08:15:10;4.65;;;1.40;;
21769;SDS011;11046;49.558;8.674;2024-03-29T08:18:11;2.38;;;1.10;;
21769;SDS011;11046;49.558;8.674;2024-03-29T08:21:11;2.60;;;1.10;;
21769;SDS011;11046;49.558;8.674;2024-03-29T08:24:12;4.57;;;1.10;;
21769;SDS011;11046;49.558;8.674;2024-03-29T08:27:13;1.52;;;1.02;;
21769;SDS011;11046;49.558;8.674;2024-03-29T08:30:13;2.10;;;0.98;;
21769;SDS011;11046;49.558;8.674;2024-03-29T08:33:14;2.90;;;1.20;;
21769;SDS011;11046;49.558;8.674;2024-03-29T08:36:15;14.65;;;5.97;;
21769;SDS011;11046;49.558;8.674;2024-03-29T08:39:15;5.85;;;2.80;;
21769;SDS011;11046;49.558;8.674;2024-03-29T08:42:16;3.13;;;1.83;;
21769;SDS011;11046;49.558;8.674;2024-03-29T08:45:17;2.08;;;0.85;;
21769;SDS011;11046;49.558;8.674;2024-03-29T08:48:18;1.95;;;0.90;;
21769;SDS011;11046;49.558;8.674;2024-03-29T08:51:18;1.67;;;0.80;;
21769;SDS011;11046;49.558;8.674;2024-03-29T08:54:19;1.15;;;0.80;;
21769;SDS011;11046;49.558;8.674;2024-03-29T08:57:20;1.93;;;0.80;;
21769;SDS011;11046;49.558;8.674;2024-03-29T09:00:21;1.38;;;0.85;;
21769;SDS011;11046;49.558;8.674;2024-03-29T09:03:22;1.52;;;0.80;;
21769;SDS011;11046;49.558;8.674;2024-03-29T09:06:23;2.15;;;1.00;;
21769;SDS011;11046;49.558;8.674;2024-03-29T09:09:23;1.48;;;0.80;;
21769;SDS011;11046;49.558;8.674;2024-03-29T09:12:24;1.60;;;0.80;;
21769;SDS011;11046;49.558;8.674;2024-03-29T09:15:24;1.58;;;0.95;;
21769;SDS011;11046;49.558;8.674;2024-03-29T09:18:25;2.45;;;1.05;;
21769;SDS011;11046;49.558;8.674;2024-03-29T09:21:27;1.05;;;0.77;;
21769;SDS011;11046;49.558;8.674;2024-03-29T09:24:27;3.22;;;1.15;;
21769;SDS011;11046;49.558;8.674;2024-03-29T09:27:29;5.05;;;1.17;;
21769;SDS011;11046;49.558;8.674;2024-03-29T09:30:29;1.15;;;0.80;;
21769;SDS011;11046;49.558;8.674;2024-03-29T09:33:30;3.20;;;1.70;;
21769;SDS011;11046;49.558;8.674;2024-03-29T09:36:30;5.53;;;2.30;;
21769;SDS011;11046;49.558;8.674;2024-03-29T09:39:31;5.85;;;2.45;;
21769;SDS011;11046;49.558;8.674;2024-03-29T09:42:32;3.55;;;1.30;;
21769;SDS011;11046;49.558;8.674;2024-03-29T09:45:34;6.47;;;1.60;;
21769;SDS011;11046;49.558;8.674;2024-03-29T09:48:37;3.28;;;1.48;;
21769;SDS011;11046;49.558;8.674;2024-03-29T09:51:37;2.33;;;1.15;;
21769;SDS011;11046;49.558;8.674;2024-03-29T09:54:40;4.15;;;1.83;;
21769;SDS011;11046;49.558;8.674;2024-03-29T09:57:40;3.83;;;1.92;;
21769;SDS011;11046;49.558;8.674;2024-03-29T10:00:41;3.88;;;2.33;;
21769;SDS011;11046;49.558;8.674;2024-03-29T10:03:43;1.80;;;1.30;;
21769;SDS011;11046;49.558;8.674;2024-03-29T10:06:48;3.10;;;1.27;;
21769;SDS011;11046;49.558;8.674;2024-03-29T10:09:51;1.52;;;1.30;;
21769;SDS011;11046;49.558;8.674;2024-03-29T10:12:53;2.80;;;1.45;;
21769;SDS011;11046;49.558;8.674;2024-03-29T10:15:54;2.53;;;1.23;;
21769;SDS011;11046;49.558;8.674;2024-03-29T10:18:58;2.58;;;1.20;;
21769;SDS011;11046;49.558;8.674;2024-03-29T10:22:05;1.60;;;1.10;;
21769;SDS011;11046;49.558;8.674;2024-03-29T10:25:09;2.37;;;1.50;;
21769;SDS011;11046;49.558;8.674;2024-03-29T10:28:10;3.27;;;1.33;;
21769;SDS011;11046;49.558;8.674;2024-03-29T10:31:11;2.57;;;1.00;;
21769;SDS011;11046;49.558;8.674;2024-03-29T10:34:13;2.97;;;1.30;;
21769;SDS011;11046;49.558;8.674;2024-03-29T10:37:14;2.42;;;1.30;;
21769;SDS011;11046;49.558;8.674;2024-03-29T10:40:16;2.13;;;1.13;;
21769;SDS011;11046;49.558;8.674;2024-03-29T10:43:19;1.42;;;1.00;;
21769;SDS011;11046;49.558;8.674;2024-03-29T10:46:21;3.35;;;1.67;;
21769;SDS011;11046;49.558;8.674;2024-03-29T10:49:22;2.08;;;1.30;;
21769;SDS011;11046;49.558;8.674;2024-03-29T10:52:26;3.87;;;1.60;;
21769;SDS011;11046;49.558;8.674;2024-03-29T10:55:28;4.68;;;1.50;;
21769;SDS011;11046;49.558;8.674;2024-03-29T10:58:33;1.88;;;1.33;;
21769;SDS011;11046;49.558;8.674;2024-03-29T11:01:35;3.47;;;1.23;;
21769;SDS011;11046;49.558;8.674;2024-03-29T11:04:39;2.50;;;1.85;;
21769;SDS011;11046;49.558;8.674;2024-03-29T11:07:41;3.08;;;1.50;;
21769;SDS011;11046;49.558;8.674;2024-03-29T11:10:44;1.70;;;1.00;;
21769;SDS011;11046;49.558;8.674;2024-03-29T11:13:49;2.15;;;1.20;;
21769;SDS011;11046;49.558;8.674;2024-03-29T11:16:57;3.47;;;1.90;;
21769;SDS011;11046;49.558;8.674;2024-03-29T11:19:59;1.90;;;1.65;;
21769;SDS011;11046;49.558;8.674;2024-03-29T11:23:01;2.50;;;1.20;;
21769;SDS011;11046;49.558;8.674;2024-03-29T11:26:11;3.38;;;1.25;;
21769;SDS011;11046;49.558;8.674;2024-03-29T11:29:18;3.13;;;1.20;;
21769;SDS011;11046;49.558;8.674;2024-03-29T11:32:34;2.58;;;1.65;;
21769;SDS011;11046;49.558;8.674;2024-03-29T11:35:39;3.28;;;2.00;;
21769;SDS011;11046;49.558;8.674;2024-03-29T11:38:40;3.75;;;1.70;;
21769;SDS011;11046;49.558;8.674;2024-03-29T11:41:46;6.18;;;2.58;;
21769;SDS011;11046;49.558;8.674;2024-03-29T11:44:47;3.67;;;1.52;;
21769;SDS011;11046;49.558;8.674;2024-03-29T11:47:47;3.00;;;1.15;;
21769;SDS011;11046;49.558;8.674;2024-03-29T11:50:49;3.75;;;1.20;;
21769;SDS011;11046;49.558;8.674;2024-03-29T11:53:50;2.67;;;1.58;;
21769;SDS011;11046;49.558;8.674;2024-03-29T11:56:52;5.00;;;1.63;;
21769;SDS011;11046;49.558;8.674;2024-03-29T11:59:52;2.30;;;1.17;;
21769;SDS011;11046;49.558;8.674;2024-03-29T12:02:53;1.90;;;1.38;;
21769;SDS011;11046;49.558;8.674;2024-03-29T12:05:54;2.95;;;1.13;;
21769;SDS011;11046;49.558;8.674;2024-03-29T12:08:58;4.28;;;2.10;;
21769;SDS011;11046;49.558;8.674;2024-03-29T12:11:59;7.13;;;2.42;;
21769;SDS011;11046;49.558;8.674;2024-03-29T12:15:05;8.52;;;3.15;;
21769;SDS011;11046;49.558;8.674;2024-03-29T12:18:06;6.90;;;2.28;;
21769;SDS011;11046;49.558;8.674;2024-03-29T12:21:07;7.28;;;2.35;;
21769;SDS011;11046;49.558;8.674;2024-03-29T12:24:09;5.68;;;2.60;;
21769;SDS011;11046;49.558;8.674;2024-03-29T12:27:10;3.53;;;2.08;;
21769;SDS011;11046;49.558;8.674;2024-03-29T12:30:13;8.68;;;3.95;;
21769;SDS011;11046;49.558;8.674;2024-03-29T12:33:17;12.80;;;6.22;;
21769;SDS011;11046;49.558;8.674;2024-03-29T12:36:25;11.90;;;4.35;;
21769;SDS011;11046;49.558;8.674;2024-03-29T12:39:29;7.40;;;4.30;;
21769;SDS011;11046;49.558;8.674;2024-03-29T12:42:33;6.38;;;3.70;;
21769;SDS011;11046;49.558;8.674;2024-03-29T12:45:34;6.10;;;2.67;;
21769;SDS011;11046;49.558;8.674;2024-03-29T12:48:36;5.05;;;2.47;;
21769;SDS011;11046;49.558;8.674;2024-03-29T12:51:39;4.40;;;2.45;;
21769;SDS011;11046;49.558;8.674;2024-03-29T12:54:40;5.15;;;2.45;;
21769;SDS011;11046;49.558;8.674;2024-03-29T12:57:41;3.63;;;2.28;;
21769;SDS011;11046;49.558;8.674;2024-03-29T13:00:44;5.18;;;2.72;;
21769;SDS011;11046;49.558;8.674;2024-03-29T13:03:44;6.45;;;3.58;;
21769;SDS011;11046;49.558;8.674;2024-03-29T13:06:45;5.20;;;3.22;;
21769;SDS011;11046;49.558;8.674;2024-03-29T13:09:46;4.68;;;2.50;;
21769;SDS011;11046;49.558;8.674;2024-03-29T13:12:46;5.70;;;2.65;;
21769;SDS011;11046;49.558;8.674;2024-03-29T13:15:50;5.68;;;2.80;;
21769;SDS011;11046;49.558;8.674;2024-03-29T13:18:51;4.22;;;2.53;;
21769;SDS011;11046;49.558;8.674;2024-03-29T13:21:52;4.50;;;2.50;;
21769;SDS011;11046;49.558;8.674;2024-03-29T13:24:52;5.90;;;3.05;;
21769;SDS011;11046;49.558;8.674;2024-03-29T13:27:53;5.32;;;2.65;;
21769;SDS011;11046;49.558;8.674;2024-03-29T13:30:55;6.82;;;3.13;;
21769;SDS011;11046;49.558;8.674;2024-03-29T13:33:56;6.50;;;3.15;;
21769;SDS011;11046;49.558;8.674;2024-03-29T13:37:03;7.25;;;4.18;;
21769;SDS011;11046;49.558;8.674;2024-03-29T13:40:07;4.60;;;3.20;;
21769;SDS011;11046;49.558;8.674;2024-03-29T13:43:08;4.00;;;3.05;;
21769;SDS011;11046;49.558;8.674;2024-03-29T13:46:09;5.60;;;3.00;;
21769;SDS011;11046;49.558;8.674;2024-03-29T13:49:10;7.97;;;4.13;;
21769;SDS011;11046;49.558;8.674;2024-03-29T13:52:12;10.32;;;4.90;;
21769;SDS011;11046;49.558;8.674;2024-03-29T13:55:14;13.13;;;5.28;;
21769;SDS011;11046;49.558;8.674;2024-03-29T13:58:14;6.50;;;4.50;;
21769;SDS011;11046;49.558;8.674;2024-03-29T14:01:16;6.93;;;4.07;;
21769;SDS011;11046;49.558;8.674;2024-03-29T14:04:16;12.32;;;6.57;;
21769;SDS011;11046;49.558;8.674;2024-03-29T14:07:17;12.45;;;5.93;;
21769;SDS011;11046;49.558;8.674;2024-03-29T14:10:18;6.90;;;3.50;;
21769;SDS011;11046;49.558;8.674;2024-03-29T14:13:19;5.97;;;2.88;;
21769;SDS011;11046;49.558;8.674;2024-03-29T14:16:20;3.70;;;2.28;;
21769;SDS011;11046;49.558;8.674;2024-03-29T14:19:20;9.32;;;4.60;;
21769;SDS011;11046;49.558;8.674;2024-03-29T14:22:21;9.10;;;5.15;;
21769;SDS011;11046;49.558;8.674;2024-03-29T14:25:23;5.95;;;3.17;;
21769;SDS011;11046;49.558;8.674;2024-03-29T14:28:24;4.50;;;2.40;;
21769;SDS011;11046;49.558;8.674;2024-03-29T14:31:24;5.72;;;2.63;;
21769;SDS011;11046;49.558;8.674;2024-03-29T14:34:25;3.65;;;1.48;;
21769;SDS011;11046;49.558;8.674;2024-03-29T14:37:26;3.08;;;1.50;;
21769;SDS011;11046;49.558;8.674;2024-03-29T14:40:27;3.80;;;1.50;;
21769;SDS011;11046;49.558;8.674;2024-03-29T14:43:28;36.85;;;13.02;;
21769;SDS011;11046;49.558;8.674;2024-03-29T14:46:29;3.63;;;2.70;;
21769;SDS011;11046;49.558;8.674;2024-03-29T14:49:29;3.42;;;2.42;;
21769;SDS011;11046;49.558;8.674;2024-03-29T14:52:30;3.45;;;2.20;;
21769;SDS011;11046;49.558;8.674;2024-03-29T14:55:31;4.55;;;2.05;;
21769;SDS011;11046;49.558;8.674;2024-03-29T14:58:32;3.22;;;1.77;;
21769;SDS011;11046;49.558;8.674;2024-03-29T15:01:33;2.92;;;1.75;;
21769;SDS011;11046;49.558;8.674;2024-03-29T15:04:33;1.80;;;1.38;;
21769;SDS011;11046;49.558;8.674;2024-03-29T15:07:34;2.47;;;1.23;;
21769;SDS011;11046;49.558;8.674;2024-03-29T15:10:34;2.22;;;1.13;;
21769;SDS011;11046;49.558;8.674;2024-03-29T15:13:35;1.55;;;0.90;;
21769;SDS011;11046;49.558;8.674;2024-03-29T15:16:36;5.82;;;3.00;;
21769;SDS011;11046;49.558;8.674;2024-03-29T15:19:36;2.05;;;1.33;;
21769;SDS011;11046;49.558;8.674;2024-03-29T15:22:38;6.15;;;3.08;;
21769;SDS011;11046;49.558;8.674;2024-03-29T15:25:44;1.10;;;1.00;;
21769;SDS011;11046;49.558;8.674;2024-03-29T15:28:45;1.95;;;1.52;;
21769;SDS011;11046;49.558;8.674;2024-03-29T15:32:05;0.98;;;0.80;;
21769;SDS011;11046;49.558;8.674;2024-03-29T15:35:06;1.13;;;1.00;;
21769;SDS011;11046;49.558;8.674;2024-03-29T15:38:07;2.15;;;1.08;;
21769;SDS011;11046;49.558;8.674;2024-03-29T15:41:11;2.38;;;1.20;;
21769;SDS011;11046;49.558;8.674;2024-03-29T15:44:12;1.98;;;1.52;;
21769;SDS011;11046;49.558;8.674;2024-03-29T15:47:15;3.80;;;1.02;;
21769;SDS011;11046;49.558;8.674;2024-03-29T15:50:16;1.55;;;1.20;;
21769;SDS011;11046;49.558;8.674;2024-03-29T15:53:17;3.55;;;1.80;;
21769;SDS011;11046;49.558;8.674;2024-03-29T15:56:18;3.30;;;1.50;;
21769;SDS011;11046;49.558;8.674;2024-03-29T15:59:19;5.13;;;2.30;;
21769;SDS011;11046;49.558;8.674;2024-03-29T16:02:22;2.55;;;1.67;;
21769;SDS011;11046;49.558;8.674;2024-03-29T16:05:23;1.98;;;1.50;;
21769;SDS011;11046;49.558;8.674;2024-03-29T16:08:24;3.33;;;1.77;;
21769;SDS011;11046;49.558;8.674;2024-03-29T16:11:25;1.63;;;1.45;;
21769;SDS011;11046;49.558;8.674;2024-03-29T16:14:36;4.60;;;1.90;;
21769;SDS011;11046;49.558;8.674;2024-03-29T16:17:36;1.65;;;1.13;;
21769;SDS011;11046;49.558;8.674;2024-03-29T16:20:37;1.65;;;1.02;;
21769;SDS011;11046;49.558;8.674;2024-03-29T16:23:38;1.13;;;1.00;;
21769;SDS011;11046;49.558;8.674;2024-03-29T16:26:38;1.20;;;1.08;;
21769;SDS011;11046;49.558;8.674;2024-03-29T16:29:39;1.77;;;1.27;;
21769;SDS011;11046;49.558;8.674;2024-03-29T16:32:39;2.63;;;1.10;;
21769;SDS011;11046;49.558;8.674;2024-03-29T16:35:41;1.55;;;1.45;;
21769;SDS011;11046;49.558;8.674;2024-03-29T16:38:41;1.58;;;1.25;;
21769;SDS011;11046;49.558;8.674;2024-03-29T16:41:42;1.52;;;1.20;;
21769;SDS011;11046;49.558;8.674;2024-03-29T16:44:43;2.17;;;1.52;;
21769;SDS011;11046;49.558;8.674;2024-03-29T16:47:44;2.55;;;1.65;;
21769;SDS011;11046;49.558;8.674;2024-03-29T16:50:45;3.65;;;2.10;;
21769;SDS011;11046;49.558;8.674;2024-03-29T16:53:46;2.08;;;1.50;;
21769;SDS011;11046;49.558;8.674;2024-03-29T16:56:47;3.78;;;2.03;;
21769;SDS011;11046;49.558;8.674;2024-03-29T16:59:48;2.08;;;1.13;;
21769;SDS011;11046;49.558;8.674;2024-03-29T17:02:49;1.35;;;1.20;;
21769;SDS011;11046;49.558;8.674;2024-03-29T17:05:50;2.90;;;1.23;;
21769;SDS011;11046;49.558;8.674;2024-03-29T17:08:51;2.20;;;1.25;;
21769;SDS011;11046;49.558;8.674;2024-03-29T17:11:52;1.98;;;1.40;;
21769;SDS011;11046;49.558;8.674;2024-03-29T17:14:53;3.13;;;1.52;;
21769;SDS011;11046;49.558;8.674;2024-03-29T17:17:54;2.38;;;1.67;;
21769;SDS011;11046;49.558;8.674;2024-03-29T17:20:55;1.83;;;1.60;;
21769;SDS011;11046;49.558;8.674;2024-03-29T17:23:56;4.10;;;2.10;;
21769;SDS011;11046;49.558;8.674;2024-03-29T17:26:57;5.05;;;2.95;;
21769;SDS011;11046;49.558;8.674;2024-03-29T17:29:58;3.03;;;1.90;;
21769;SDS011;11046;49.558;8.674;2024-03-29T17:32:58;3.05;;;1.80;;
21769;SDS011;11046;49.558;8.674;2024-03-29T17:35:59;1.80;;;1.70;;
21769;SDS011;11046;49.558;8.674;2024-03-29T17:39:00;3.28;;;2.00;;
21769;SDS011;11046;49.558;8.674;2024-03-29T17:42:02;10.02;;;5.85;;
21769;SDS011;11046;49.558;8.674;2024-03-29T17:45:04;16.40;;;8.70;;
21769;SDS011;11046;49.558;8.674;2024-03-29T17:48:07;8.25;;;5.15;;
21769;SDS011;11046;49.558;8.674;2024-03-29T17:51:08;6.30;;;2.75;;
21769;SDS011;11046;49.558;8.674;2024-03-29T17:54:08;5.45;;;2.33;;
21769;SDS011;11046;49.558;8.674;2024-03-29T17:57:09;3.72;;;2.13;;
21769;SDS011;11046;49.558;8.674;2024-03-29T18:00:10;5.47;;;2.10;;
21769;SDS011;11046;49.558;8.674;2024-03-29T18:03:13;3.83;;;2.30;;
21769;SDS011;11046;49.558;8.674;2024-03-29T18:06:14;4.28;;;3.10;;
21769;SDS011;11046;49.558;8.674;2024-03-29T18:09:14;13.90;;;7.30;;
21769;SDS011;11046;49.558;8.674;2024-03-29T18:12:15;5.03;;;3.72;;
21769;SDS011;11046;49.558;8.674;2024-03-29T18:15:15;9.35;;;6.53;;
21769;SDS011;11046;49.558;8.674;2024-03-29T18:18:16;5.88;;;2.88;;
21769;SDS011;11046;49.558;8.674;2024-03-29T18:21:17;8.45;;;5.03;;